createdAt,value
2019-04-23T00:03:01.724Z,25.10
2019-04-23T00:08:12.784Z,25.81
2019-04-23T00:13:21.336Z,26.08
2019-04-23T00:18:35.619Z,26.34
2019-04-23T00:23:40.727Z,26.13
2019-04-23T00:28:40.868Z,27.44
2019-04-23T00:33:55.044Z,27.15
2019-04-23T00:38:57.210Z,28.81
2019-04-23T00:44:06.310Z,27.39
2019-04-23T00:49:21.221Z,25.91
2019-04-23T00:54:28.845Z,25.00
2019-04-23T00:59:39.156Z,24.64
2019-04-23T01:04:54.063Z,25.47
2019-04-23T01:09:56.182Z,24.33
2019-04-23T01:15:02.778Z,24.58
2019-04-23T01:20:08.187Z,24.42
2019-04-23T01:25:12.087Z,23.93
2019-04-23T01:30:23.593Z,22.46
2019-04-23T01:35:36.565Z,21.97
2019-04-23T01:40:46.775Z,21.76
2019-04-23T01:45:54.551Z,21.64
2019-04-23T01:50:56.074Z,21.13
2019-04-23T01:56:06.229Z,20.63
2019-04-23T02:01:29.611Z,21.15
2019-04-23T02:06:36.691Z,21.92
2019-04-23T02:11:31.754Z,21.17
2019-04-23T02:16:53.200Z,21.20
2019-04-23T02:22:01.156Z,21.45
2019-04-23T02:32:21.485Z,23.07
2019-04-23T02:37:46.859Z,23.53
2019-04-23T02:47:48.716Z,21.56
2019-04-23T02:58:09.985Z,21.21
2019-04-23T03:13:35.016Z,18.74
2019-04-23T03:18:39.260Z,18.31
2019-04-23T03:23:46.683Z,17.47
2019-04-23T03:29:04.365Z,17.73
2019-04-23T03:34:19.627Z,17.36
2019-04-23T04:10:00.321Z,15.37
2019-04-23T04:15:04.282Z,15.48
2019-04-23T04:20:33.021Z,16.04
2019-04-23T04:25:33.589Z,16.28
2019-04-23T04:30:41.021Z,16.95
2019-04-23T04:35:38.256Z,16.99
2019-04-23T04:40:52.155Z,17.40
2019-04-23T04:46:15.102Z,17.47
2019-04-23T04:51:00.170Z,17.80
2019-04-23T04:56:21.291Z,18.45
2019-04-23T05:01:25.990Z,18.85
2019-04-23T05:06:24.390Z,19.81
2019-04-23T05:16:50.550Z,22.07
2019-04-23T05:27:07.151Z,23.67
2019-04-23T05:37:22.776Z,22.15
2019-04-23T05:42:19.893Z,22.10
2019-04-23T05:47:33.149Z,21.56
2019-04-23T05:52:37.929Z,21.50
2019-04-23T05:57:54.889Z,19.67
2019-04-23T06:08:12.013Z,18.60
2019-04-23T06:13:18.687Z,18.62
2019-04-23T06:18:32.696Z,19.14
2019-04-23T06:28:31.551Z,20.73
2019-04-23T06:33:54.150Z,19.63
2019-04-23T06:38:54.645Z,19.75
2019-04-23T06:44:08.855Z,20.39
2019-04-23T06:49:26.981Z,20.35
2019-04-23T06:54:36.096Z,20.44
2019-04-23T06:59:36.986Z,20.70
2019-04-23T07:04:55.170Z,19.97
2019-04-23T07:09:51.630Z,19.76
2019-04-23T07:15:11.620Z,19.48
2019-04-23T07:20:00.283Z,18.95
2019-04-23T07:25:17.543Z,19.20
2019-04-23T07:30:29.268Z,19.32
2019-04-23T07:35:21.244Z,19.29
2019-04-23T07:40:40.997Z,18.53
2019-04-23T07:45:45.402Z,18.05
2019-04-23T07:50:49.396Z,19.05
2019-04-23T08:01:09.657Z,17.91
2019-04-23T08:06:22.037Z,17.25
2019-04-23T08:16:36.706Z,18.77
2019-04-23T08:21:58.754Z,17.73
2019-04-23T08:32:12.217Z,18.03
2019-04-23T08:37:26.572Z,17.67
2019-04-23T08:42:36.471Z,17.86
2019-04-23T08:47:27.655Z,18.06
2019-04-23T08:57:45.183Z,19.18
2019-04-23T09:03:06.317Z,20.39
2019-04-23T09:08:26.906Z,20.18
2019-04-23T09:13:36.328Z,21.61
2019-04-23T09:18:27.814Z,21.80
2019-04-23T09:23:40.887Z,23.52
2019-04-23T09:28:40.141Z,25.42
2019-04-23T09:39:08.069Z,27.68
2019-04-23T09:44:27.425Z,27.08
2019-04-23T09:59:41.400Z,27.50
2019-04-23T10:04:31.980Z,27.51
2019-04-23T10:09:27.689Z,27.68
2019-04-23T10:14:36.611Z,28.50
2019-04-23T10:19:44.694Z,28.59
2019-04-23T10:24:53.238Z,28.24
2019-04-23T10:30:01.757Z,27.61
2019-04-23T10:35:20.836Z,28.43
2019-04-23T10:45:40.872Z,27.08
2019-04-23T10:56:03.730Z,26.43
2019-04-23T11:06:36.837Z,26.36
2019-04-23T11:11:38.029Z,27.14
2019-04-23T11:21:42.474Z,27.06
2019-04-23T11:32:31.727Z,24.62
2019-04-23T11:37:29.965Z,23.07
2019-04-23T11:42:27.422Z,24.91
2019-04-23T11:52:52.295Z,22.50
2019-04-23T11:57:56.904Z,19.44
2019-04-23T12:02:53.932Z,17.61
2019-04-23T12:13:14.971Z,16.77
2019-04-23T12:18:35.333Z,16.55
2019-04-23T12:23:31.613Z,15.46
2019-04-23T12:28:40.557Z,17.73
2019-04-23T12:38:49.185Z,17.05
2019-04-23T12:43:51.661Z,18.54
2019-04-23T12:49:10.492Z,17.11
2019-04-23T12:54:21.635Z,16.96
2019-04-23T12:59:14.721Z,16.13
2019-04-23T13:04:32.230Z,13.65
2019-04-23T13:09:46.023Z,13.23
2019-04-23T13:14:51.049Z,14.55
2019-04-23T13:25:03.549Z,14.61
2019-04-23T13:40:33.738Z,17.55
2019-04-23T13:45:47.058Z,15.92
2019-04-23T13:50:53.458Z,14.33
2019-04-23T13:55:42.531Z,16.76
2019-04-23T14:01:35.346Z,18.15
2019-04-23T14:11:46.742Z,16.99
2019-04-23T14:17:02.595Z,15.47
2019-04-23T14:22:31.373Z,12.79
2019-04-23T14:32:29.343Z,14.33
2019-04-23T14:37:52.832Z,13.63
2019-04-23T14:42:53.905Z,15.19
2019-04-23T14:53:12.617Z,16.54
2019-04-23T14:58:10.403Z,15.19
2019-04-23T15:03:26.695Z,15.27
2019-04-23T15:08:28.688Z,14.20
2019-04-23T15:13:27.861Z,13.96
2019-04-23T15:27:35.964Z,13.42
2019-04-23T15:28:43.109Z,12.00
2019-04-23T15:34:13.537Z,10.72
2019-04-23T15:39:26.832Z,10.23
2019-04-23T15:44:23.208Z,11.42
2019-04-23T15:49:28.785Z,12.33
2019-04-23T15:54:50.565Z,11.87
2019-04-23T15:59:55.574Z,10.90
2019-04-23T16:04:35.733Z,10.03
2019-04-23T16:10:15.115Z,10.88
2019-04-23T16:20:37.937Z,12.10
2019-04-23T16:25:32.778Z,11.02
2019-04-23T16:35:51.290Z,10.02
2019-04-23T16:40:54.782Z,9.61
2019-04-23T16:51:24.686Z,10.39
2019-04-23T16:56:42.838Z,13.10
2019-04-23T17:01:34.597Z,17.56
2019-04-23T17:06:36.173Z,19.87
2019-04-23T17:11:59.551Z,21.38
2019-04-23T17:16:53.419Z,21.13
2019-04-23T17:22:11.324Z,21.55
2019-04-23T17:27:22.499Z,20.08
2019-04-23T17:32:23.621Z,19.39
2019-04-23T17:42:39.339Z,18.53
2019-04-23T17:53:09.491Z,17.60
2019-04-23T17:58:17.720Z,17.57
2019-04-23T18:03:25.792Z,17.00
2019-04-23T18:08:27.239Z,17.89
2019-04-23T18:18:53.319Z,17.25
2019-04-23T18:24:02.712Z,17.29
2019-04-23T18:29:09.922Z,17.52
2019-04-23T18:34:14.526Z,17.50
2019-04-23T18:49:41.408Z,17.86
2019-04-23T18:59:57.592Z,23.80
2019-04-23T19:05:05.122Z,16.10
2019-04-23T19:15:13.364Z,17.47
2019-04-23T19:20:47.938Z,16.02
2019-04-23T19:25:28.302Z,15.95
2019-04-23T19:30:41.749Z,15.20
2019-04-23T19:41:02.213Z,36.62
2019-04-23T19:46:00.900Z,16.82
2019-04-23T19:51:09.562Z,14.75
2019-04-23T19:56:39.708Z,14.20
2019-04-23T20:01:29.013Z,13.52
2019-04-23T20:07:06.138Z,15.05
2019-04-23T20:11:54.814Z,15.06
2019-04-23T20:17:26.310Z,15.71
2019-04-23T20:22:16.718Z,15.25
2019-04-23T20:32:10.375Z,14.95
2019-04-23T20:42:27.269Z,14.59
2019-04-23T20:47:53.727Z,19.38
2019-04-23T20:52:46.564Z,14.53
2019-04-23T20:57:50.240Z,12.82
2019-04-23T21:03:25.600Z,13.84
2019-04-23T21:08:12.248Z,13.27
2019-04-23T21:13:45.384Z,13.22
2019-04-23T21:23:51.072Z,12.44
2019-04-23T21:44:18.950Z,11.02
2019-04-23T21:49:35.859Z,10.66
2019-04-23T22:10:02.927Z,9.68
2019-04-23T22:15:07.250Z,10.26
2019-04-23T22:20:27.834Z,11.13
2019-04-23T22:25:42.069Z,10.41
2019-04-23T22:30:52.655Z,10.89
2019-04-23T22:35:57.393Z,10.74
2019-04-23T22:40:49.054Z,10.40
2019-04-23T22:46:08.656Z,10.70
2019-04-23T22:56:10.721Z,10.73
2019-04-23T23:01:43.150Z,10.99
2019-04-23T23:06:50.657Z,10.39
2019-04-23T23:16:56.622Z,11.12
2019-04-23T23:26:57.127Z,9.86
2019-04-23T23:37:28.175Z,10.43
2019-04-23T23:53:08.845Z,10.20
2019-04-23T23:58:02.916Z,10.25
